Time;durP1;ratioP1;P1;durP2;ratioP2;P2;SDS_P1;SDS_P2;PMS_P1;PMS_P2;Temp;Humidity;BMP_temperature;BMP_pressure;BME280_temperature;BME280_humidity;BME280_pressure;Samples;Min_cycle;Max_cycle;Signal;HPM_P1;HPM_P2
2022/12/27 00:01:28;;;;;;;3.95;1.42;;;20.60;34.90;;;;;;5048634;28;20033;-55
2022/12/27 00:03:54;;;;;;;3.58;1.55;;;20.60;34.90;;;;;;5048433;28;20025;-56
2022/12/27 00:06:22;;;;;;;3.38;1.70;;;20.60;34.90;;;;;;5045859;28;20037;-49
2022/12/27 00:08:49;;;;;;;3.08;1.48;;;20.60;34.90;;;;;;5048853;28;20022;-52
2022/12/27 00:11:18;;;;;;;3.30;1.67;;;20.60;35.00;;;;;;5047137;28;20034;-55
2022/12/27 00:13:44;;;;;;;3.10;1.70;;;20.60;34.90;;;;;;5045838;28;20041;-54
2022/12/27 00:16:13;;;;;;;3.22;1.60;;;20.60;35.00;;;;;;5047719;28;21571;-55
2022/12/27 00:18:40;;;;;;;2.58;1.30;;;20.50;34.90;;;;;;5052300;28;20459;-52
2022/12/27 00:21:07;;;;;;;3.00;1.30;;;20.60;35.00;;;;;;5047635;28;20076;-52
2022/12/27 00:23:36;;;;;;;3.45;1.23;;;20.50;35.00;;;;;;5045538;28;20086;-50
2022/12/27 00:26:23;;;;;;;4.93;1.60;;;20.50;35.00;;;;;;5046399;28;20444;-51
2022/12/27 00:28:49;;;;;;;2.63;1.35;;;20.50;35.00;;;;;;5048381;28;20033;-55
2022/12/27 00:31:16;;;;;;;3.47;1.63;;;20.50;35.00;;;;;;5050094;28;20348;-53
2022/12/27 00:33:45;;;;;;;3.78;1.30;;;20.50;35.10;;;;;;5047810;28;20421;-53
2022/12/27 00:36:13;;;;;;;2.60;1.33;;;20.50;35.10;;;;;;5048941;28;20030;-54
2022/12/27 00:38:39;;;;;;;2.72;1.15;;;20.50;35.10;;;;;;5042916;28;20112;-54
2022/12/27 00:41:05;;;;;;;5.32;1.40;;;20.50;35.10;;;;;;5050916;28;20025;-51
2022/12/27 00:43:31;;;;;;;2.25;1.30;;;20.50;35.10;;;;;;5049388;28;20741;-53
2022/12/27 00:45:57;;;;;;;2.95;1.23;;;20.40;35.10;;;;;;5045867;28;20113;-54
2022/12/27 00:48:24;;;;;;;3.63;1.70;;;20.50;35.10;;;;;;5045626;28;20100;-54
2022/12/27 00:50:55;;;;;;;3.42;1.55;;;20.40;35.10;;;;;;5048444;28;20401;-56
2022/12/27 00:53:21;;;;;;;1.85;0.98;;;20.40;35.10;;;;;;5026450;28;20041;-55
2022/12/27 00:55:47;;;;;;;2.70;1.10;;;20.40;35.10;;;;;;5046247;28;20029;-53
2022/12/27 00:58:13;;;;;;;2.65;1.20;;;20.40;35.20;;;;;;5050719;28;20416;-53
2022/12/27 01:00:38;;;;;;;3.47;1.52;;;20.40;35.20;;;;;;5025417;28;20449;-54
2022/12/27 01:03:04;;;;;;;2.80;1.25;;;20.40;35.20;;;;;;5047819;28;20026;-55
2022/12/27 01:05:30;;;;;;;3.30;1.30;;;20.30;35.20;;;;;;5043116;28;20033;-53
2022/12/27 01:07:56;;;;;;;2.10;1.38;;;20.40;35.30;;;;;;5051421;28;20025;-53
2022/12/27 01:10:22;;;;;;;3.22;1.50;;;20.40;35.30;;;;;;5046729;28;20035;-52
2022/12/27 01:12:48;;;;;;;2.83;1.15;;;20.40;35.30;;;;;;5044875;28;20052;-51
2022/12/27 01:15:13;;;;;;;3.25;1.50;;;20.30;35.20;;;;;;5047257;28;20148;-56
2022/12/27 01:17:39;;;;;;;2.28;1.20;;;20.40;35.30;;;;;;5046143;28;20044;-55
2022/12/27 01:20:06;;;;;;;3.30;1.50;;;20.30;35.30;;;;;;5044189;28;20041;-56
2022/12/27 01:22:32;;;;;;;3.15;1.50;;;20.30;35.30;;;;;;5030100;28;20035;-57
2022/12/27 01:24:57;;;;;;;2.60;1.45;;;20.30;35.40;;;;;;5049173;28;20017;-50
2022/12/27 01:27:23;;;;;;;2.40;1.50;;;20.30;35.40;;;;;;5045780;28;20025;-51
2022/12/27 01:29:49;;;;;;;3.95;1.45;;;20.30;35.40;;;;;;5051844;28;20029;-57
2022/12/27 01:32:15;;;;;;;2.65;1.17;;;20.30;35.40;;;;;;5045105;28;20101;-54
2022/12/27 01:34:41;;;;;;;2.55;1.10;;;20.20;35.30;;;;;;5045793;28;20136;-52
2022/12/27 01:37:06;;;;;;;2.88;1.02;;;20.30;35.40;;;;;;5048804;28;20111;-52
2022/12/27 01:39:32;;;;;;;2.08;1.05;;;20.30;35.40;;;;;;5046034;28;20034;-55
2022/12/27 01:44:57;;;;;;;3.53;1.40;;;20.20;35.40;;;;;;5048778;28;20043;-55
2022/12/27 01:47:28;;;;;;;3.47;1.25;;;20.20;35.40;;;;;;5047336;28;20024;-52
2022/12/27 01:49:54;;;;;;;2.83;1.38;;;20.20;35.60;;;;;;5045457;28;20055;-52
2022/12/27 01:52:22;;;;;;;2.25;1.23;;;20.20;35.60;;;;;;5047440;28;20056;-49
2022/12/27 01:54:50;;;;;;;2.53;1.30;;;20.20;35.60;;;;;;5046476;28;20083;-53
2022/12/27 01:57:16;;;;;;;2.97;1.42;;;20.20;35.60;;;;;;5045869;28;20025;-56
2022/12/27 01:59:42;;;;;;;2.20;1.20;;;20.20;35.60;;;;;;5043736;28;20428;-54
2022/12/27 02:02:08;;;;;;;2.47;1.30;;;20.20;35.60;;;;;;5043365;28;20083;-52
2022/12/27 02:04:34;;;;;;;2.83;1.33;;;20.20;35.60;;;;;;5030013;28;20041;-53
2022/12/27 02:07:00;;;;;;;1.88;1.15;;;20.20;35.60;;;;;;5047332;28;20032;-49
2022/12/27 02:09:42;;;;;;;2.28;1.15;;;20.20;35.60;;;;;;5044096;28;20025;-52
2022/12/27 02:12:09;;;;;;;2.63;1.20;;;20.10;35.60;;;;;;5049451;28;20056;-52
2022/12/27 02:14:47;;;;;;;2.97;1.40;;;20.10;35.60;;;;;;5051140;28;20032;-51
2022/12/27 02:17:23;;;;;;;3.47;1.30;;;20.10;35.60;;;;;;5051023;28;20049;-50
2022/12/27 02:20:06;;;;;;;1.40;1.00;;;20.10;35.70;;;;;;5028243;28;20047;-55
2022/12/27 02:24:01;;;;;;;3.20;1.40;;;20.10;35.70;;;;;;5045895;28;20032;-54
2022/12/27 02:25:42;;;;;;;3.33;1.17;;;20.10;35.70;;;;;;5044633;28;20024;-48
2022/12/27 02:28:47;;;;;;;2.38;1.23;;;20.10;35.80;;;;;;5045361;28;20103;-50
2022/12/27 02:31:30;;;;;;;3.53;1.30;;;20.00;35.70;;;;;;5043927;28;20083;-56
2022/12/27 02:33:58;;;;;;;2.53;1.15;;;20.00;35.80;;;;;;5045200;28;20106;-52
2022/12/27 02:36:32;;;;;;;3.03;1.23;;;20.10;35.90;;;;;;5043057;28;20045;-50
2022/12/27 02:39:00;;;;;;;1.42;1.08;;;20.10;35.90;;;;;;5047744;28;20452;-50
2022/12/27 02:53:06;;;;;;;2.60;1.25;;;20.00;36.10;;;;;;5047122;28;20424;-53
2022/12/27 02:57:07;;;;;;;3.30;1.20;;;20.00;36.20;;;;;;5041140;28;20128;-53
2022/12/27 02:58:35;;;;;;;3.20;1.10;;;20.00;36.20;;;;;;5043941;28;20425;-52
2022/12/27 03:04:36;;;;;;;2.03;1.10;;;19.90;36.20;;;;;;5039257;28;20079;-51
2022/12/27 03:07:10;;;;;;;4.47;1.27;;;19.90;36.30;;;;;;5044015;28;20057;-48
2022/12/27 03:16:04;;;;;;;3.47;1.20;;;19.90;36.30;;;;;;5046218;28;20053;-54
2022/12/27 03:18:43;;;;;;;1.63;1.10;;;19.90;36.30;;;;;;5001262;28;20127;-57
2022/12/27 03:26:47;;;;;;;2.13;1.00;;;19.90;36.40;;;;;;5008123;28;20022;-50
2022/12/27 03:35:00;;;;;;;2.25;1.17;;;19.90;36.50;;;;;;5001061;28;20420;-48
2022/12/27 03:40:37;;;;;;;3.17;1.17;;;19.90;36.50;;;;;;5000324;28;20038;-50
2022/12/27 03:43:14;;;;;;;1.40;0.82;;;19.90;36.50;;;;;;5011378;28;20351;-48
2022/12/27 03:49:15;;;;;;;2.58;1.02;;;19.80;36.50;;;;;;5006874;28;20064;-49
2022/12/27 03:52:03;;;;;;;3.00;1.08;;;19.80;36.50;;;;;;4999534;28;20046;-54
2022/12/27 03:54:38;;;;;;;3.13;1.15;;;19.80;36.50;;;;;;5009137;28;20050;-51
2022/12/27 03:57:10;;;;;;;3.45;1.08;;;19.80;36.60;;;;;;5008150;28;20068;-50
2022/12/27 03:59:37;;;;;;;2.80;0.82;;;19.80;36.60;;;;;;5008718;28;20040;-51
2022/12/27 04:02:04;;;;;;;2.22;1.00;;;19.80;36.60;;;;;;5010093;28;20041;-49
2022/12/27 04:04:30;;;;;;;3.33;1.13;;;19.80;36.70;;;;;;5008119;28;20018;-50
2022/12/27 04:06:56;;;;;;;2.75;1.25;;;19.80;36.70;;;;;;5008853;28;20446;-51
2022/12/27 04:36:48;;;;;;;2.83;0.93;;;19.70;36.70;;;;;;5051031;28;20052;-50
2022/12/27 04:39:14;;;;;;;2.40;1.20;;;19.70;36.70;;;;;;5050570;28;20448;-52
2022/12/27 04:55:30;;;;;;;;;;;19.70;36.80;;;;;;5044283;28;20041;-50
2022/12/27 04:57:57;;;;;;;2.78;1.10;;;19.70;36.80;;;;;;5048029;28;20351;-48
2022/12/27 05:03:18;;;;;;;2.92;1.02;;;19.60;36.80;;;;;;5043900;28;20437;-50
2022/12/27 05:05:45;;;;;;;2.25;1.05;;;19.60;36.80;;;;;;5046618;28;20111;-54
2022/12/27 05:13:59;;;;;;;2.13;1.00;;;19.60;36.80;;;;;;5049791;28;20071;-56
2022/12/27 05:16:29;;;;;;;2.67;1.00;;;19.60;36.80;;;;;;5044998;28;20138;-48
2022/12/27 05:18:56;;;;;;;2.22;1.00;;;19.60;36.80;;;;;;5047993;28;20672;-52
2022/12/27 05:21:22;;;;;;;2.55;1.15;;;19.60;36.80;;;;;;5045538;28;20037;-50
2022/12/27 05:26:34;;;;;;;2.90;1.20;;;19.60;36.80;;;;;;5043312;28;20018;-53
2022/12/27 05:29:01;;;;;;;1.50;0.75;;;19.60;36.90;;;;;;5047358;28;20386;-54
2022/12/27 05:31:28;;;;;;;2.20;1.20;;;19.60;36.90;;;;;;5050195;28;20186;-53
2022/12/27 05:33:55;;;;;;;2.22;1.20;;;19.60;36.90;;;;;;5049287;28;20032;-52
2022/12/27 05:36:21;;;;;;;3.58;1.10;;;19.60;36.90;;;;;;5045363;28;20108;-50
2022/12/27 05:38:47;;;;;;;2.17;0.93;;;19.50;36.80;;;;;;5044673;28;20116;-54
2022/12/27 05:41:13;;;;;;;2.95;1.20;;;19.60;36.90;;;;;;5042749;28;20432;-54
2022/12/27 05:43:39;;;;;;;3.35;1.20;;;19.50;36.90;;;;;;5041884;28;20038;-50
2022/12/27 05:46:11;;;;;;;3.88;1.20;;;19.50;36.90;;;;;;5043382;28;20043;-51
2022/12/27 05:48:37;;;;;;;2.72;1.10;;;19.50;36.90;;;;;;5044792;28;20033;-56
2022/12/27 05:51:05;;;;;;;2.78;1.05;;;19.50;36.90;;;;;;5043054;28;20040;-53
2022/12/27 05:53:31;;;;;;;2.13;0.75;;;19.50;36.90;;;;;;5048015;28;20025;-52
2022/12/27 05:55:57;;;;;;;2.47;1.10;;;19.50;36.90;;;;;;5042624;28;20026;-51
2022/12/27 05:58:24;;;;;;;3.10;1.30;;;19.50;36.90;;;;;;5045664;28;20079;-49
2022/12/27 06:00:50;;;;;;;2.55;0.90;;;19.50;36.90;;;;;;5044385;28;20127;-51
2022/12/27 06:03:16;;;;;;;3.58;0.88;;;19.50;36.90;;;;;;5049602;28;20455;-52
2022/12/27 06:05:42;;;;;;;1.95;0.88;;;19.50;37.00;;;;;;5042810;28;20421;-50
2022/12/27 06:08:09;;;;;;;2.72;1.20;;;19.50;37.00;;;;;;5026078;28;20032;-51
2022/12/27 06:10:36;;;;;;;2.10;1.00;;;19.50;37.00;;;;;;5045570;28;20082;-51
2022/12/27 06:13:03;;;;;;;3.15;1.30;;;19.50;37.00;;;;;;5028207;28;20111;-47
2022/12/27 06:15:29;;;;;;;2.17;1.00;;;19.50;37.00;;;;;;5044888;28;20025;-54
2022/12/27 06:17:56;;;;;;;2.88;0.90;;;19.40;36.90;;;;;;5044625;28;20056;-50
2022/12/27 06:20:22;;;;;;;3.47;1.40;;;19.40;36.90;;;;;;5044627;28;20602;-53
2022/12/27 06:22:48;;;;;;;3.20;1.02;;;19.40;37.00;;;;;;5042312;28;20467;-54
2022/12/27 06:25:14;;;;;;;1.65;0.70;;;19.40;37.00;;;;;;5040263;28;20026;-48
2022/12/27 06:27:40;;;;;;;2.88;1.35;;;19.40;37.00;;;;;;5050607;28;20033;-49
2022/12/27 06:30:07;;;;;;;2.85;1.17;;;19.40;37.00;;;;;;5041809;28;20032;-51
2022/12/27 06:32:33;;;;;;;2.05;1.10;;;19.40;37.00;;;;;;5043254;28;20026;-48
2022/12/27 06:34:59;;;;;;;4.38;1.30;;;19.40;37.00;;;;;;5039439;28;20127;-52
2022/12/27 06:37:25;;;;;;;2.83;0.85;;;19.40;37.00;;;;;;5045494;28;20092;-53
2022/12/27 06:39:51;;;;;;;2.78;1.10;;;19.40;37.00;;;;;;5046612;28;20049;-50
2022/12/27 06:42:17;;;;;;;2.53;0.95;;;19.40;37.00;;;;;;5045681;28;20649;-53
2022/12/27 06:44:43;;;;;;;3.10;0.90;;;19.40;37.00;;;;;;5044093;28;20017;-52
2022/12/27 06:47:08;;;;;;;4.13;1.10;;;19.40;37.00;;;;;;5046750;28;20441;-51
2022/12/27 06:49:34;;;;;;;2.33;1.00;;;19.40;37.00;;;;;;5043050;28;20112;-54
2022/12/27 06:52:00;;;;;;;2.30;0.90;;;19.40;37.00;;;;;;5047493;28;20091;-53
2022/12/27 06:54:26;;;;;;;3.25;0.88;;;19.40;37.00;;;;;;5043288;28;20098;-53
2022/12/27 06:56:52;;;;;;;3.35;1.17;;;19.40;37.00;;;;;;5041770;28;20086;-52
2022/12/27 06:59:18;;;;;;;2.50;0.82;;;19.40;37.00;;;;;;5044591;28;20456;-55
2022/12/27 07:01:43;;;;;;;2.28;0.70;;;19.40;37.00;;;;;;5042500;28;20104;-56
2022/12/27 07:04:09;;;;;;;3.72;0.98;;;19.30;37.00;;;;;;5043586;28;20424;-52
2022/12/27 07:06:36;;;;;;;2.30;0.85;;;19.40;37.10;;;;;;5043631;28;20085;-54
2022/12/27 07:09:02;;;;;;;1.95;0.90;;;19.40;37.10;;;;;;5045822;28;20028;-54
2022/12/27 07:11:32;;;;;;;2.40;1.08;;;19.40;37.10;;;;;;5044380;28;20103;-51
2022/12/27 07:13:58;;;;;;;2.97;1.10;;;19.30;37.10;;;;;;5045403;28;20076;-57
2022/12/27 07:16:27;;;;;;;2.67;1.15;;;19.30;37.10;;;;;;5039290;28;20477;-51
2022/12/27 07:18:58;;;;;;;1.63;0.82;;;19.30;37.10;;;;;;5048509;28;20070;-50
2022/12/27 07:21:26;;;;;;;2.97;1.02;;;19.30;37.10;;;;;;5041741;28;20052;-54
2022/12/27 07:23:52;;;;;;;2.17;0.77;;;19.30;37.10;;;;;;5044733;28;20483;-50
2022/12/27 07:26:20;;;;;;;2.72;0.88;;;19.30;37.10;;;;;;5049362;28;20033;-50
2022/12/27 07:28:47;;;;;;;3.40;1.30;;;19.30;37.30;;;;;;5045679;28;20025;-50
2022/12/27 07:31:23;;;;;;;2.15;0.95;;;19.30;37.10;;;;;;5044123;28;20033;-51
2022/12/27 07:33:50;;;;;;;2.60;0.95;;;19.30;37.10;;;;;;5024179;28;20056;-54
2022/12/27 07:36:23;;;;;;;2.88;0.93;;;19.30;37.10;;;;;;5046600;28;20059;-56
2022/12/27 07:38:49;;;;;;;4.25;1.30;;;19.30;37.20;;;;;;5044045;28;20029;-52
2022/12/27 07:41:15;;;;;;;2.17;0.90;;;19.30;37.10;;;;;;5045073;28;20029;-51
2022/12/27 07:43:43;;;;;;;2.83;0.88;;;19.30;37.10;;;;;;5046754;28;20025;-51
2022/12/27 07:46:12;;;;;;;2.97;1.08;;;19.30;37.20;;;;;;5026061;28;20151;-50
2022/12/27 07:48:39;;;;;;;4.07;1.05;;;19.30;37.20;;;;;;5043233;28;20095;-55
2022/12/27 07:51:07;;;;;;;3.63;0.90;;;19.30;37.20;;;;;;5042572;28;20460;-51
2022/12/27 07:53:37;;;;;;;2.88;1.17;;;19.20;37.20;;;;;;5047414;28;20029;-51
2022/12/27 07:56:08;;;;;;;3.45;0.93;;;19.30;37.20;;;;;;5044017;28;20357;-50
2022/12/27 07:58:42;;;;;;;2.83;0.70;;;19.30;37.20;;;;;;5045320;28;20029;-50
2022/12/27 08:01:09;;;;;;;2.83;1.08;;;19.20;37.10;;;;;;5047395;28;20507;-51
2022/12/27 08:03:35;;;;;;;2.65;0.95;;;19.30;37.20;;;;;;5047155;28;20063;-50
2022/12/27 08:06:01;;;;;;;4.43;0.98;;;19.20;37.10;;;;;;5044331;28;20454;-53
2022/12/27 08:08:41;;;;;;;5.85;1.13;;;19.20;37.10;;;;;;5048020;28;20038;-47
2022/12/27 08:11:08;;;;;;;3.47;1.30;;;19.20;37.20;;;;;;5047786;28;20464;-49
2022/12/27 08:13:34;;;;;;;2.78;0.90;;;19.30;37.20;;;;;;5048663;28;20043;-49
2022/12/27 08:16:01;;;;;;;1.80;0.80;;;19.20;37.20;;;;;;5046399;28;20045;-54
2022/12/27 08:18:28;;;;;;;5.80;1.15;;;19.20;37.30;;;;;;5040235;28;20035;-50
2022/12/27 08:20:54;;;;;;;3.13;1.00;;;19.30;37.50;;;;;;5047068;28;20419;-49
2022/12/27 08:23:20;;;;;;;2.80;0.82;;;19.30;37.60;;;;;;5047137;28;20120;-53
2022/12/27 08:25:46;;;;;;;3.30;1.05;;;19.30;37.70;;;;;;5048336;28;20025;-55
2022/12/27 08:28:14;;;;;;;2.70;0.90;;;19.30;37.80;;;;;;5048545;28;20032;-47
2022/12/27 08:30:43;;;;;;;3.45;0.90;;;19.30;37.80;;;;;;5045195;28;20399;-52
2022/12/27 08:33:10;;;;;;;4.65;0.98;;;19.40;37.90;;;;;;5052293;28;20025;-46
2022/12/27 08:35:40;;;;;;;2.30;0.80;;;19.40;37.90;;;;;;5051467;28;20452;-49
2022/12/27 08:38:07;;;;;;;2.17;0.90;;;19.50;38.00;;;;;;5049634;28;20321;-50
2022/12/27 08:40:33;;;;;;;2.67;0.88;;;19.60;38.00;;;;;;5048372;28;20395;-49
2022/12/27 08:42:59;;;;;;;1.55;0.55;;;19.60;38.10;;;;;;5049321;28;20037;-49
2022/12/27 08:45:25;;;;;;;3.75;0.90;;;19.60;38.10;;;;;;5050943;28;20043;-51
2022/12/27 08:47:51;;;;;;;3.72;0.77;;;19.70;38.10;;;;;;5051863;28;20029;-54
2022/12/27 08:50:17;;;;;;;2.45;1.00;;;19.80;38.10;;;;;;5046106;28;20072;-49
2022/12/27 08:52:43;;;;;;;3.20;1.00;;;19.90;38.10;;;;;;5046075;28;20028;-49
2022/12/27 08:55:09;;;;;;;2.83;0.88;;;19.90;38.10;;;;;;5045476;28;20042;-56
2022/12/27 08:57:34;;;;;;;2.33;0.73;;;20.00;38.00;;;;;;5045608;28;21481;-55
2022/12/27 09:00:01;;;;;;;3.28;1.05;;;20.00;38.00;;;;;;5046397;28;20084;-55
2022/12/27 09:02:28;;;;;;;2.25;0.90;;;20.10;37.90;;;;;;5045055;28;20476;-54
2022/12/27 09:04:54;;;;;;;3.25;1.05;;;20.20;37.90;;;;;;5046317;28;20105;-52
2022/12/27 09:07:20;;;;;;;2.95;1.10;;;20.20;37.70;;;;;;5031692;28;20476;-53
2022/12/27 09:09:46;;;;;;;2.80;0.93;;;20.30;37.60;;;;;;5051893;28;20460;-50
2022/12/27 09:12:11;;;;;;;2.80;1.05;;;20.40;37.50;;;;;;5050503;28;20082;-53
2022/12/27 09:14:44;;;;;;;2.17;0.90;;;20.40;38.00;;;;;;5057099;28;20041;-53
2022/12/27 09:17:15;;;;;;;1.52;0.80;;;20.50;37.20;;;;;;5051934;28;20388;-54
2022/12/27 09:19:42;;;;;;;6.43;1.02;;;20.60;37.10;;;;;;5037156;28;20123;-53
2022/12/27 09:22:08;;;;;;;2.22;0.82;;;20.60;37.00;;;;;;5048528;28;20069;-55
2022/12/27 09:24:41;;;;;;;2.50;1.00;;;20.70;36.90;;;;;;5056039;28;20068;-51
2022/12/27 09:27:10;;;;;;;4.40;0.90;;;20.70;36.80;;;;;;5051226;28;20437;-51
2022/12/27 09:29:36;;;;;;;3.10;1.00;;;20.80;36.70;;;;;;5054182;28;20280;-56
2022/12/27 09:32:02;;;;;;;1.98;0.90;;;20.90;36.60;;;;;;5049295;28;20051;-53
2022/12/27 09:34:28;;;;;;;2.45;1.08;;;20.90;36.50;;;;;;5046319;28;20044;-51
2022/12/27 09:36:56;;;;;;;2.60;1.00;;;21.00;36.40;;;;;;5054977;28;20043;-48
2022/12/27 09:39:22;;;;;;;2.80;1.17;;;21.00;36.30;;;;;;5053461;28;20036;-55
2022/12/27 09:42:02;;;;;;;2.47;1.10;;;21.10;36.30;;;;;;5054356;28;20021;-55
2022/12/27 09:44:57;;;;;;;2.83;1.05;;;21.20;36.20;;;;;;5053746;28;20355;-49
2022/12/27 09:47:47;;;;;;;1.52;0.80;;;21.20;36.10;;;;;;5055769;28;20347;-52
2022/12/27 09:50:26;;;;;;;3.08;1.20;;;21.30;36.10;;;;;;5054197;28;20454;-52
2022/12/27 09:53:24;;;;;;;3.42;1.17;;;21.30;36.00;;;;;;5054780;28;20108;-53
2022/12/27 09:55:54;;;;;;;1.65;0.73;;;21.40;36.10;;;;;;4942059;28;20070;-52
2022/12/27 09:58:39;;;;;;;1.95;0.98;;;21.40;36.00;;;;;;5054406;28;20029;-53
2022/12/27 10:01:27;;;;;;;3.42;0.98;;;21.40;35.90;;;;;;5054249;28;20032;-49
2022/12/27 10:03:53;;;;;;;1.88;0.98;;;21.50;35.90;;;;;;5052986;28;20031;-53
2022/12/27 10:06:40;;;;;;;4.53;1.15;;;21.50;35.70;;;;;;5054490;28;20060;-54
2022/12/27 10:09:43;;;;;;;1.60;0.70;;;21.60;35.70;;;;;;5053945;28;20112;-53
2022/12/27 10:12:37;;;;;;;1.40;0.70;;;21.60;35.60;;;;;;5054098;28;20025;-54
2022/12/27 10:15:10;;;;;;;2.90;1.00;;;21.70;35.60;;;;;;5053862;28;20033;-50
2022/12/27 10:17:51;;;;;;;2.20;1.00;;;21.60;35.50;;;;;;5052197;28;20457;-48
2022/12/27 10:20:25;;;;;;;1.60;0.70;;;21.70;35.50;;;;;;5051517;28;20029;-49
2022/12/27 10:23:01;;;;;;;2.25;0.90;;;21.70;35.40;;;;;;5054705;28;20029;-48
2022/12/27 10:25:30;;;;;;;2.75;0.93;;;21.70;35.40;;;;;;5053168;28;20468;-51
2022/12/27 10:28:01;;;;;;;2.53;1.00;;;21.80;35.40;;;;;;5054804;28;20365;-52
2022/12/27 10:30:30;;;;;;;3.35;1.17;;;21.80;35.40;;;;;;5055604;28;20033;-52
2022/12/27 10:32:56;;;;;;;3.03;0.80;;;21.80;35.40;;;;;;5055573;28;20025;-51
2022/12/27 10:35:23;;;;;;;3.30;1.00;;;21.80;35.30;;;;;;5054981;28;20476;-52
2022/12/27 10:37:49;;;;;;;2.80;1.17;;;21.80;35.30;;;;;;5055697;28;20036;-53
2022/12/27 10:40:34;;;;;;;2.25;1.00;;;21.80;35.30;;;;;;5055900;28;20071;-51
2022/12/27 10:43:10;;;;;;;2.72;1.10;;;21.80;35.30;;;;;;5055759;28;20377;-56
2022/12/27 10:45:41;;;;;;;3.00;0.93;;;21.80;35.30;;;;;;5053711;28;20110;-55
2022/12/27 10:48:28;;;;;;;2.65;1.05;;;21.80;35.30;;;;;;5066025;28;20028;-54
2022/12/27 10:51:05;;;;;;;2.47;1.10;;;21.80;35.40;;;;;;5063508;28;20096;-57
2022/12/27 10:53:39;;;;;;;2.00;1.00;;;21.80;35.60;;;;;;5041550;28;20033;-55
2022/12/27 10:56:32;;;;;;;2.15;0.80;;;21.80;36.00;;;;;;5054594;28;20032;-53
2022/12/27 10:59:32;;;;;;;2.03;0.85;;;21.90;36.40;;;;;;5008362;28;20038;-52
2022/12/27 11:02:01;;;;;;;2.60;0.98;;;21.80;36.60;;;;;;5009996;28;20066;-56
2022/12/27 11:04:29;;;;;;;1.75;0.80;;;21.90;36.90;;;;;;5013900;28;20104;-55
2022/12/27 11:07:01;;;;;;;1.73;0.73;;;21.90;37.10;;;;;;5013319;28;20030;-50
2022/12/27 11:09:36;;;;;;;1.85;0.90;;;21.90;37.20;;;;;;5012964;28;20026;-58
2022/12/27 11:12:31;;;;;;;3.33;0.90;;;21.80;37.30;;;;;;5013445;28;20076;-53
2022/12/27 11:15:10;;;;;;;2.22;0.93;;;21.90;37.40;;;;;;4997256;28;20088;-56
2022/12/27 11:17:41;;;;;;;2.65;0.90;;;21.90;37.40;;;;;;4970217;28;20070;-52
2022/12/27 11:20:22;;;;;;;2.78;0.90;;;21.90;37.40;;;;;;4991832;28;20045;-51
2022/12/27 11:22:56;;;;;;;2.45;0.80;;;21.90;37.20;;;;;;4993136;28;20034;-50
2022/12/27 11:25:25;;;;;;;;;;;21.80;37.00;;;;;;4994131;28;20041;-53
2022/12/27 11:28:04;;;;;;;2.95;1.05;;;21.80;36.80;;;;;;4973809;28;20281;-54
2022/12/27 11:30:37;;;;;;;1.52;0.80;;;21.80;36.70;;;;;;4985200;28;20034;-55
2022/12/27 11:33:25;;;;;;;3.60;1.00;;;21.80;36.60;;;;;;4992256;28;20110;-55
2022/12/27 11:35:53;;;;;;;5.03;1.10;;;21.80;36.60;;;;;;4987461;28;20068;-58
2022/12/27 11:38:30;;;;;;;5.82;1.27;;;21.80;36.60;;;;;;5010064;28;20033;-57
2022/12/27 11:41:05;;;;;;;4.28;1.00;;;21.80;36.60;;;;;;5014777;28;20052;-55
2022/12/27 11:43:52;;;;;;;2.85;0.90;;;21.90;36.70;;;;;;5008622;28;20026;-57
2022/12/27 11:46:45;;;;;;;3.08;1.00;;;21.90;36.60;;;;;;5011324;28;20026;-57
2022/12/27 11:49:22;;;;;;;5.30;1.40;;;22.00;36.50;;;;;;5011533;28;20052;-57
2022/12/27 11:51:56;;;;;;;2.97;1.08;;;22.10;36.40;;;;;;5007975;28;20030;-54
2022/12/27 11:54:37;;;;;;;5.13;1.42;;;22.20;36.30;;;;;;5006906;28;20037;-53
2022/12/27 11:57:34;;;;;;;4.05;1.20;;;22.30;36.20;;;;;;5006882;28;20041;-53
2022/12/27 12:00:18;;;;;;;3.72;1.42;;;22.40;36.00;;;;;;5013083;28;20026;-55
2022/12/27 12:03:35;;;;;;;5.65;1.23;;;22.50;35.80;;;;;;5018572;28;20348;-57
2022/12/27 12:06:22;;;;;;;9.68;1.98;;;22.60;35.60;;;;;;5012387;28;20080;-55
2022/12/27 12:09:20;;;;;;;3.97;1.30;;;22.70;35.50;;;;;;5010035;28;20026;-57
2022/12/27 12:12:08;;;;;;;5.50;1.38;;;22.80;35.50;;;;;;4998823;28;20061;-55
2022/12/27 12:14:49;;;;;;;2.50;1.02;;;22.80;35.50;;;;;;5013387;28;20469;-58
2022/12/27 12:17:32;;;;;;;3.08;1.10;;;22.90;35.50;;;;;;5039850;28;20128;-57
2022/12/27 12:20:10;;;;;;;5.13;1.67;;;22.90;35.50;;;;;;5054676;28;20032;-53
2022/12/27 12:23:20;;;;;;;3.30;1.15;;;23.00;35.50;;;;;;5036312;28;20423;-57
2022/12/27 12:26:05;;;;;;;2.78;1.05;;;23.00;35.40;;;;;;5021295;28;20036;-56
2022/12/27 12:29:06;;;;;;;2.92;0.98;;;23.10;35.30;;;;;;5056564;28;20039;-59
2022/12/27 12:31:54;;;;;;;3.45;1.40;;;23.10;35.30;;;;;;5047571;28;20040;-59
2022/12/27 12:34:54;;;;;;;1.80;1.20;;;23.10;35.20;;;;;;5059916;28;20040;-52
2022/12/27 12:37:46;;;;;;;4.93;1.30;;;23.10;35.00;;;;;;5055057;28;20041;-53
2022/12/27 12:40:42;;;;;;;3.45;1.00;;;23.20;35.00;;;;;;5055464;28;20032;-54
2022/12/27 12:43:33;;;;;;;4.40;1.48;;;23.20;34.90;;;;;;5053082;28;20033;-58
2022/12/27 12:46:18;;;;;;;3.50;1.70;;;23.30;34.90;;;;;;5053251;28;20337;-60
2022/12/27 12:49:21;;;;;;;3.92;1.45;;;23.30;34.80;;;;;;5052132;28;20057;-58
2022/12/27 12:52:12;;;;;;;4.10;1.50;;;23.30;34.70;;;;;;5057396;28;20029;-56
2022/12/27 12:55:16;;;;;;;2.15;0.93;;;23.30;34.50;;;;;;5047874;28;20041;-55
2022/12/27 12:58:04;;;;;;;3.60;1.55;;;23.40;34.40;;;;;;4949177;29;20046;-55
2022/12/27 13:00:57;;;;;;;3.35;1.42;;;23.40;34.20;;;;;;5045890;28;20083;-54
2022/12/27 13:03:44;;;;;;;4.82;1.40;;;23.40;34.00;;;;;;5046556;28;20400;-57
2022/12/27 13:06:21;;;;;;;4.07;1.30;;;23.40;33.90;;;;;;5050991;28;20036;-54
2022/12/27 13:09:02;;;;;;;4.82;1.38;;;23.40;33.80;;;;;;5050552;28;20028;-56
2022/12/27 13:11:45;;;;;;;5.40;1.55;;;23.30;33.70;;;;;;5043650;28;20026;-55
2022/12/27 13:14:23;;;;;;;2.80;1.33;;;23.30;33.70;;;;;;5048707;28;20102;-56
2022/12/27 13:17:17;;;;;;;3.83;1.30;;;23.30;33.70;;;;;;5033640;28;20065;-58
2022/12/27 13:19:57;;;;;;;4.43;1.10;;;23.20;33.70;;;;;;5050571;28;20033;-55
2022/12/27 13:22:38;;;;;;;2.72;1.20;;;23.20;33.70;;;;;;5050372;28;20175;-56
2022/12/27 13:25:32;;;;;;;4.70;1.30;;;23.20;33.70;;;;;;5050577;28;20017;-56
2022/12/27 13:28:30;;;;;;;2.65;1.13;;;23.20;33.80;;;;;;5051339;28;20025;-57
2022/12/27 13:31:11;;;;;;;4.70;1.38;;;23.20;33.90;;;;;;5050126;28;20739;-54
2022/12/27 13:33:55;;;;;;;5.68;1.40;;;23.20;33.90;;;;;;5021075;28;20456;-52
2022/12/27 13:36:35;;;;;;;4.90;1.20;;;23.10;33.90;;;;;;5049297;28;20342;-55
2022/12/27 13:39:28;;;;;;;3.83;1.10;;;23.10;33.90;;;;;;5050445;28;20732;-55
2022/12/27 13:42:12;;;;;;;2.80;1.08;;;23.10;33.90;;;;;;5051080;28;20021;-56
2022/12/27 13:44:59;;;;;;;2.55;1.10;;;23.10;33.90;;;;;;5051816;28;20032;-56
2022/12/27 13:48:11;;;;;;;2.05;1.08;;;23.00;33.90;;;;;;5047519;28;20130;-57
2022/12/27 13:51:04;;;;;;;2.38;1.17;;;23.00;33.90;;;;;;4971731;28;20041;-55
2022/12/27 13:54:24;;;;;;;3.75;1.20;;;23.00;33.90;;;;;;5050123;28;20033;-59
2022/12/27 13:57:09;;;;;;;5.15;1.13;;;23.00;33.90;;;;;;4974012;28;20134;-54
2022/12/27 13:59:59;;;;;;;2.67;1.10;;;22.90;34.00;;;;;;4958301;28;20121;-53
2022/12/27 14:02:31;;;;;;;4.78;1.20;;;22.90;34.10;;;;;;5027116;28;20041;-59
2022/12/27 14:05:04;;;;;;;1.88;1.00;;;22.90;34.10;;;;;;5052098;28;20025;-55
2022/12/27 14:07:57;;;;;;;3.47;0.98;;;22.90;34.50;;;;;;5051009;28;20427;-55
2022/12/27 14:10:35;;;;;;;3.50;1.08;;;22.90;34.20;;;;;;5049388;28;20449;-52
2022/12/27 14:13:07;;;;;;;2.03;1.00;;;22.90;34.30;;;;;;5049125;28;20086;-58
2022/12/27 14:16:06;;;;;;;3.88;1.10;;;22.90;34.40;;;;;;5048103;28;20098;-56
2022/12/27 14:18:53;;;;;;;2.10;0.90;;;22.90;34.60;;;;;;5008833;28;20667;-54
2022/12/27 14:22:00;;;;;;;5.28;1.30;;;22.90;34.80;;;;;;5008508;28;20048;-54
2022/12/27 14:25:02;;;;;;;1.90;0.90;;;22.90;35.00;;;;;;5009634;28;20453;-55
2022/12/27 14:28:02;;;;;;;4.68;0.90;;;22.90;35.00;;;;;;5011104;28;20456;-52
2022/12/27 14:31:02;;;;;;;2.55;1.00;;;22.90;35.00;;;;;;5009457;28;20041;-55
2022/12/27 14:34:05;;;;;;;1.90;0.88;;;23.00;35.00;;;;;;5001891;28;20062;-49
2022/12/27 14:36:34;;;;;;;1.85;1.00;;;23.00;34.90;;;;;;5007394;28;20037;-53
2022/12/27 14:39:40;;;;;;;4.13;0.90;;;23.00;34.80;;;;;;5008644;28;20034;-55
2022/12/27 14:42:38;;;;;;;;;;;23.00;34.70;;;;;;5006377;28;20057;-53
2022/12/27 14:45:34;;;;;;;2.95;1.00;;;23.00;34.70;;;;;;4971773;28;19910;-53
2022/12/27 14:48:21;;;;;;;2.80;1.27;;;23.00;34.60;;;;;;5005755;28;20034;-53
2022/12/27 14:50:58;;;;;;;2.72;1.20;;;22.90;34.60;;;;;;5007760;28;20074;-48
2022/12/27 14:53:30;;;;;;;1.90;0.88;;;22.90;35.20;;;;;;5006972;28;20040;-61
2022/12/27 14:56:06;;;;;;;2.28;0.93;;;22.90;34.60;;;;;;5004833;28;20030;-57
2022/12/27 14:58:57;;;;;;;1.60;0.93;;;22.90;34.70;;;;;;5005245;28;20108;-55
2022/12/27 15:02:12;;;;;;;2.35;1.10;;;22.90;34.80;;;;;;5007170;28;20070;-58